createdAt,value
2019-02-21T00:01:41.415Z,79.75
2019-02-21T00:04:11.259Z,79.17
2019-02-21T00:06:43.171Z,79.82
2019-02-21T00:09:13.191Z,79.82
2019-02-21T00:11:44.872Z,79.17
2019-02-21T00:14:14.441Z,79.85
2019-02-21T00:16:44.622Z,79.76
2019-02-21T00:19:14.680Z,79.77
2019-02-21T00:21:44.360Z,79.80
2019-02-21T00:24:14.111Z,79.80
2019-02-21T00:26:44.343Z,80.39
2019-02-21T00:29:14.043Z,80.39
2019-02-21T00:31:44.006Z,80.08
2019-02-21T00:34:13.744Z,80.81
2019-02-21T00:36:43.302Z,80.81
2019-02-21T00:39:13.198Z,80.96
2019-02-21T00:41:43.294Z,80.94
2019-02-21T00:44:12.969Z,80.89
2019-02-21T00:46:42.915Z,80.89
2019-02-21T00:49:15.858Z,80.47
2019-02-21T00:51:45.477Z,81.13
2019-02-21T00:54:15.523Z,81.13
2019-02-21T00:56:45.392Z,81.19
2019-02-21T00:59:15.252Z,81.39
2019-02-21T01:01:45.191Z,81.77
2019-02-21T01:04:17.124Z,81.43
2019-02-21T01:06:46.713Z,81.06
2019-02-21T01:09:16.916Z,81.06
2019-02-21T01:11:47.093Z,80.50
2019-02-21T01:14:16.914Z,80.50
2019-02-21T01:16:46.738Z,79.86
2019-02-21T01:19:16.405Z,79.96
2019-02-21T01:21:45.948Z,80.04
2019-02-21T01:24:16.395Z,80.04
2019-02-21T01:26:46.396Z,80.98
2019-02-21T01:29:16.203Z,81.31
2019-02-21T01:31:46.420Z,82.09
2019-02-21T01:34:16.349Z,81.52
2019-02-21T01:36:46.267Z,81.44
2019-02-21T01:39:15.894Z,81.44
2019-02-21T01:41:45.706Z,81.69
2019-02-21T01:44:17.363Z,81.14
2019-02-21T01:46:49.080Z,81.14
2019-02-21T01:49:20.043Z,81.30
2019-02-21T01:51:49.854Z,81.30
2019-02-21T01:54:19.498Z,81.71
2019-02-21T01:56:49.302Z,81.68
2019-02-21T01:59:18.923Z,82.65
2019-02-21T02:01:48.644Z,82.65
2019-02-21T02:04:18.320Z,82.19
2019-02-21T02:06:48.033Z,82.19
2019-02-21T02:09:18.279Z,82.50
2019-02-21T02:11:48.093Z,81.77
2019-02-21T02:14:17.828Z,82.07
2019-02-21T02:16:47.513Z,82.07
2019-02-21T02:19:19.023Z,81.72
2019-02-21T02:21:48.941Z,82.33
2019-02-21T02:24:18.540Z,82.33
2019-02-21T02:26:48.306Z,82.81
2019-02-21T02:29:18.077Z,82.21
2019-02-21T02:31:48.630Z,82.27
2019-02-21T02:34:18.333Z,82.27
2019-02-21T02:36:48.230Z,81.64
2019-02-21T02:39:18.166Z,81.78
2019-02-21T02:41:47.886Z,81.78
2019-02-21T02:44:17.728Z,83.43
2019-02-21T02:46:47.422Z,83.43
2019-02-21T02:49:17.110Z,82.92
2019-02-21T02:51:47.522Z,82.92
2019-02-21T02:54:21.179Z,82.27
2019-02-21T02:56:51.263Z,82.27
2019-02-21T02:59:21.176Z,82.42
2019-02-21T03:01:50.958Z,82.42
2019-02-21T03:04:20.642Z,82.25
2019-02-21T03:06:50.455Z,82.17
2019-02-21T03:09:21.133Z,82.23
2019-02-21T03:11:54.058Z,82.23
2019-02-21T03:14:23.925Z,82.05
2019-02-21T03:16:54.079Z,82.06
2019-02-21T03:19:23.848Z,82.06
2019-02-21T03:21:53.543Z,81.55
2019-02-21T03:24:23.405Z,81.55
2019-02-21T03:26:53.838Z,81.41
2019-02-21T03:29:23.686Z,81.29
2019-02-21T03:31:55.596Z,81.23
2019-02-21T03:34:33.805Z,81.13
2019-02-21T03:37:03.482Z,81.13
2019-02-21T03:39:33.524Z,80.98
2019-02-21T03:42:03.108Z,81.15
2019-02-21T03:44:32.606Z,81.15
2019-02-21T03:47:02.288Z,80.92
2019-02-21T03:49:33.057Z,80.63
2019-02-21T03:52:02.998Z,80.28
2019-02-21T03:54:32.471Z,80.28
2019-02-21T03:57:02.031Z,80.29
2019-02-21T03:59:34.645Z,80.39
2019-02-21T04:02:05.566Z,80.39
2019-02-21T04:04:35.341Z,80.36
2019-02-21T04:07:06.018Z,80.64
2019-02-21T04:09:35.531Z,80.58
2019-02-21T04:12:06.333Z,80.67
2019-02-21T04:14:37.760Z,80.32
2019-02-21T04:17:07.608Z,80.19
2019-02-21T04:19:40.297Z,80.24
2019-02-21T04:22:09.721Z,80.31
2019-02-21T04:24:42.200Z,79.84
2019-02-21T04:27:11.571Z,80.31
2019-02-21T04:29:41.080Z,79.81
2019-02-21T04:32:16.986Z,79.35
2019-02-21T04:34:46.836Z,79.35
2019-02-21T04:37:19.521Z,79.78
2019-02-21T04:39:50.152Z,79.78
2019-02-21T04:42:23.042Z,80.06
2019-02-21T04:44:52.466Z,80.06
2019-02-21T04:47:22.182Z,80.83
2019-02-21T04:49:51.670Z,80.83
2019-02-21T04:52:21.151Z,80.39
2019-02-21T04:54:52.405Z,80.45
2019-02-21T04:57:23.242Z,80.45
2019-02-21T04:59:53.183Z,79.72
2019-02-21T05:02:28.906Z,80.20
2019-02-21T05:04:55.441Z,80.55
2019-02-21T05:07:24.942Z,80.55
2019-02-21T05:09:58.306Z,80.66
2019-02-21T05:12:27.423Z,80.64
2019-02-21T05:14:56.946Z,80.80
2019-02-21T05:17:27.564Z,80.32
2019-02-21T05:19:57.169Z,80.06
2019-02-21T05:22:27.217Z,79.76
2019-02-21T05:24:57.196Z,79.32
2019-02-21T05:27:33.733Z,79.49
2019-02-21T05:30:06.111Z,80.10
2019-02-21T05:32:59.372Z,81.24
2019-02-21T05:35:52.664Z,81.59
2019-02-21T05:38:50.530Z,81.11
2019-02-21T05:41:31.402Z,81.11
2019-02-21T05:44:11.446Z,81.27
2019-02-21T05:46:55.700Z,81.27
2019-02-21T05:49:48.239Z,82.41
2019-02-21T05:52:41.395Z,82.27
2019-02-21T05:55:22.580Z,81.95
2019-02-21T05:57:57.637Z,82.34
2019-02-21T06:00:41.159Z,82.43
2019-02-21T06:03:35.777Z,82.43
2019-02-21T06:06:30.043Z,82.66
2019-02-21T06:09:29.362Z,83.06
2019-02-21T06:12:10.015Z,82.79
2019-02-21T06:14:55.156Z,83.69
2019-02-21T06:17:56.332Z,83.23
2019-02-21T06:20:43.350Z,83.23
2019-02-21T06:23:45.910Z,83.65
2019-02-21T06:26:43.529Z,83.99
2019-02-21T06:29:22.542Z,83.99
2019-02-21T06:31:52.223Z,83.29
2019-02-21T06:34:21.562Z,82.86
2019-02-21T06:36:50.939Z,82.68
2019-02-21T06:39:20.668Z,82.60
2019-02-21T06:41:59.200Z,82.42
2019-02-21T06:44:22.634Z,82.16
2019-02-21T06:46:52.193Z,82.20
2019-02-21T06:49:32.180Z,82.20
2019-02-21T06:51:54.243Z,83.19
2019-02-21T06:54:24.478Z,83.19
2019-02-21T06:56:54.506Z,83.31
2019-02-21T06:59:25.341Z,83.67
2019-02-21T07:01:54.944Z,83.44
2019-02-21T07:04:25.289Z,83.26
2019-02-21T07:09:18.572Z,83.77
2019-02-21T07:11:49.288Z,83.04
2019-02-21T07:14:18.973Z,82.83
2019-02-21T07:16:48.399Z,83.27
2019-02-21T07:19:21.432Z,84.03
2019-02-21T07:21:51.406Z,84.03
2019-02-21T07:24:21.475Z,84.31
2019-02-21T07:26:53.270Z,83.49
2019-02-21T07:29:28.874Z,83.49
2019-02-21T07:31:58.924Z,84.07
2019-02-21T07:34:30.465Z,84.04
2019-02-21T07:37:02.159Z,83.87
2019-02-21T07:39:35.947Z,83.87
2019-02-21T07:42:02.885Z,84.22
2019-02-21T07:44:33.031Z,84.29
2019-02-21T07:47:02.835Z,84.29
2019-02-21T07:49:32.405Z,84.40
2019-02-21T07:52:05.535Z,83.94
2019-02-21T07:54:35.754Z,84.10
2019-02-21T07:57:09.893Z,83.99
2019-02-21T07:59:40.556Z,83.32
2019-02-21T08:02:11.828Z,83.38
2019-02-21T08:04:42.742Z,83.16
2019-02-21T08:07:12.574Z,82.95
2019-02-21T08:09:43.807Z,82.99
2019-02-21T08:12:13.643Z,82.70
2019-02-21T08:14:47.204Z,82.70
2019-02-21T08:17:19.280Z,82.73
2019-02-21T08:19:48.823Z,82.34
2019-02-21T08:22:18.398Z,82.23
2019-02-21T08:24:48.125Z,82.10
2019-02-21T08:27:17.772Z,82.10
2019-02-21T08:29:49.649Z,81.93
2019-02-21T08:32:23.107Z,81.17
2019-02-21T08:34:54.724Z,80.84
2019-02-21T08:37:26.071Z,80.84
2019-02-21T08:39:55.645Z,80.32
2019-02-21T08:42:27.167Z,79.61
2019-02-21T08:44:58.046Z,79.61
2019-02-21T08:47:27.649Z,79.00
2019-02-21T08:50:00.606Z,79.83
2019-02-21T08:52:30.321Z,79.83
2019-02-21T08:55:00.740Z,79.66
2019-02-21T08:57:31.085Z,79.63
2019-02-21T09:00:00.514Z,79.34
2019-02-21T09:02:32.949Z,78.75
2019-02-21T09:05:03.139Z,78.32
2019-02-21T09:07:32.541Z,78.08
2019-02-21T09:10:02.439Z,77.24
2019-02-21T09:12:33.679Z,77.24
2019-02-21T09:15:07.503Z,77.23
2019-02-21T09:17:37.871Z,76.64
2019-02-21T09:20:07.610Z,76.75
2019-02-21T09:22:37.130Z,76.86
2019-02-21T09:25:12.132Z,76.86
2019-02-21T09:27:41.573Z,75.88
2019-02-21T09:30:16.252Z,75.47
2019-02-21T09:32:48.936Z,75.47
2019-02-21T09:35:18.599Z,75.50
2019-02-21T09:37:51.430Z,75.29
2019-02-21T09:40:21.984Z,75.98
2019-02-21T09:42:51.475Z,75.44
2019-02-21T09:45:21.131Z,75.23
2019-02-21T09:47:50.585Z,75.67
2019-02-21T09:50:20.383Z,75.67
2019-02-21T09:52:53.077Z,74.71
2019-02-21T09:55:23.327Z,74.71
2019-02-21T09:57:52.790Z,74.32
2019-02-21T10:00:22.470Z,74.32
2019-02-21T10:02:55.754Z,74.02
2019-02-21T10:05:23.245Z,73.59
2019-02-21T10:07:54.835Z,73.59
2019-02-21T10:10:29.821Z,73.58
2019-02-21T10:13:02.135Z,73.91
2019-02-21T10:15:38.374Z,73.64
2019-02-21T10:18:08.067Z,72.18
2019-02-21T10:20:40.234Z,72.49
2019-02-21T10:23:09.855Z,72.49
2019-02-21T10:25:42.196Z,70.81
2019-02-21T10:28:14.102Z,71.31
2019-02-21T10:30:43.696Z,71.31
2019-02-21T10:33:13.171Z,69.95
2019-02-21T10:35:42.858Z,70.65
2019-02-21T10:38:12.269Z,70.65
2019-02-21T10:40:44.431Z,70.35
2019-02-21T10:43:20.128Z,70.35
2019-02-21T10:45:49.724Z,71.51
2019-02-21T10:48:19.249Z,69.92
2019-02-21T10:50:48.810Z,69.92
2019-02-21T10:53:20.273Z,70.79
2019-02-21T10:55:50.187Z,71.43
2019-02-21T10:58:19.666Z,71.43
2019-02-21T11:00:49.240Z,72.04
2019-02-21T11:03:19.278Z,72.74
2019-02-21T11:05:48.847Z,73.05
2019-02-21T11:08:18.781Z,72.38
2019-02-21T11:10:48.382Z,71.69
2019-02-21T11:13:18.101Z,71.60
2019-02-21T11:15:48.669Z,71.48
2019-02-21T11:18:18.869Z,71.48
2019-02-21T11:20:48.283Z,71.48
2019-02-21T11:23:19.309Z,71.32
2019-02-21T11:25:50.052Z,71.77
2019-02-21T11:28:20.576Z,71.81
2019-02-21T11:30:50.409Z,71.81
2019-02-21T11:33:20.009Z,72.60
2019-02-21T11:35:49.836Z,72.60
2019-02-21T11:38:19.331Z,71.56
2019-02-21T11:40:51.140Z,71.67
2019-02-21T11:43:20.827Z,71.44
2019-02-21T11:45:57.005Z,70.56
2019-02-21T11:48:32.868Z,70.28
2019-02-21T11:51:12.112Z,68.45
2019-02-21T11:53:46.247Z,68.45
2019-02-21T11:56:16.139Z,69.29
2019-02-21T11:58:46.220Z,68.50
2019-02-21T12:01:19.042Z,68.50
2019-02-21T12:03:50.425Z,67.22
2019-02-21T12:06:20.345Z,68.19
2019-02-21T12:08:50.080Z,67.64
2019-02-21T12:11:20.305Z,67.64
2019-02-21T12:16:29.303Z,65.37
2019-02-21T12:18:59.006Z,65.37
2019-02-21T12:21:31.280Z,66.48
2019-02-21T12:24:02.317Z,67.27
2019-02-21T12:26:32.143Z,65.82
2019-02-21T12:29:02.155Z,65.02
2019-02-21T12:31:31.949Z,65.25
2019-02-21T12:34:01.642Z,67.50
2019-02-21T12:36:34.404Z,67.93
2019-02-21T12:39:04.919Z,67.70
2019-02-21T12:41:37.174Z,67.70
2019-02-21T12:44:07.168Z,65.88
2019-02-21T12:46:39.921Z,65.97
2019-02-21T12:49:10.810Z,65.84
2019-02-21T12:51:41.965Z,64.65
2019-02-21T12:54:11.685Z,64.65
2019-02-21T12:56:43.638Z,63.91
2019-02-21T12:59:13.831Z,64.51
2019-02-21T13:01:43.322Z,64.62
2019-02-21T13:04:13.720Z,64.62
2019-02-21T13:06:43.651Z,63.87
2019-02-21T13:09:13.468Z,63.87
2019-02-21T13:11:43.152Z,63.33
2019-02-21T13:14:12.781Z,62.64
2019-02-21T13:16:42.423Z,61.92
2019-02-21T13:19:12.185Z,61.92
2019-02-21T13:21:45.049Z,61.96
2019-02-21T13:24:16.198Z,64.93
2019-02-21T13:26:45.820Z,64.56
2019-02-21T13:29:15.249Z,64.56
2019-02-21T13:35:12.774Z,62.32
2019-02-21T13:37:42.234Z,61.53
2019-02-21T13:40:13.365Z,61.09
2019-02-21T13:42:43.003Z,61.09
2019-02-21T13:45:13.717Z,60.73
2019-02-21T13:47:43.590Z,61.87
2019-02-21T13:50:17.125Z,61.15
2019-02-21T13:52:49.695Z,61.09
2019-02-21T13:55:19.154Z,60.16
2019-02-21T13:57:49.306Z,60.16
2019-02-21T14:00:19.287Z,59.82
2019-02-21T14:02:49.007Z,59.82
2019-02-21T14:05:18.372Z,60.16
2019-02-21T14:07:48.179Z,60.13
2019-02-21T14:10:18.086Z,60.13
2019-02-21T14:12:49.393Z,61.07
2019-02-21T14:15:22.556Z,61.07
2019-02-21T14:17:52.030Z,61.48
2019-02-21T14:20:23.141Z,61.90
2019-02-21T14:22:52.665Z,61.90
2019-02-21T14:25:22.562Z,62.13
2019-02-21T14:27:52.130Z,62.13
2019-02-21T14:30:22.287Z,61.96
2019-02-21T14:32:58.134Z,62.22
2019-02-21T14:35:30.495Z,62.22
2019-02-21T14:38:00.134Z,62.65
2019-02-21T14:40:30.399Z,62.93
2019-02-21T14:43:00.058Z,62.66
2019-02-21T14:45:32.703Z,63.81
2019-02-21T14:48:13.177Z,63.81
2019-02-21T14:50:43.308Z,64.36
2019-02-21T14:53:27.374Z,64.56
2019-02-21T14:55:57.207Z,64.96
2019-02-21T14:58:30.206Z,64.57
2019-02-21T15:01:03.755Z,64.48
2019-02-21T15:03:36.419Z,64.48
2019-02-21T15:06:11.168Z,64.35
2019-02-21T15:08:41.014Z,64.35
2019-02-21T15:11:10.762Z,62.94
2019-02-21T15:13:43.150Z,62.94
2019-02-21T15:16:14.846Z,63.64
2019-02-21T15:18:44.377Z,63.06
2019-02-21T15:21:14.355Z,63.06
2019-02-21T15:23:43.987Z,63.15
2019-02-21T15:26:13.667Z,62.99
2019-02-21T15:28:44.540Z,62.99
2019-02-21T15:31:14.413Z,63.12
2019-02-21T15:33:43.921Z,62.10
2019-02-21T15:36:14.721Z,61.84
2019-02-21T15:38:44.566Z,62.26
2019-02-21T15:41:14.333Z,62.92
2019-02-21T15:43:44.131Z,62.74
2019-02-21T15:46:15.034Z,63.39
2019-02-21T15:48:45.639Z,63.03
2019-02-21T15:51:15.659Z,63.03
2019-02-21T15:53:48.439Z,63.90
2019-02-21T15:56:25.751Z,62.87
2019-02-21T15:58:55.568Z,63.99
2019-02-21T16:01:24.961Z,63.96
2019-02-21T16:03:54.700Z,63.96
2019-02-21T16:06:26.379Z,64.13
2019-02-21T16:08:56.304Z,63.97
2019-02-21T16:11:26.615Z,63.97
2019-02-21T16:14:03.237Z,64.05
2019-02-21T16:16:27.558Z,65.31
2019-02-21T16:19:06.450Z,65.91
2019-02-21T16:21:36.347Z,66.14
2019-02-21T16:24:09.398Z,66.14
2019-02-21T16:26:39.473Z,65.39
2019-02-21T16:29:09.153Z,67.31
2019-02-21T16:31:39.032Z,67.31
2019-02-21T16:34:09.388Z,67.35
2019-02-21T16:36:38.918Z,67.95
2019-02-21T16:39:08.296Z,67.65
2019-02-21T16:41:37.733Z,68.35
2019-02-21T16:44:09.379Z,68.16
2019-02-21T16:46:39.247Z,68.82
2019-02-21T16:49:09.699Z,68.82
2019-02-21T16:51:39.682Z,69.32
2019-02-21T16:54:09.434Z,69.46
2019-02-21T16:56:39.329Z,69.46
2019-02-21T16:59:09.191Z,69.56
2019-02-21T17:01:39.158Z,68.98
2019-02-21T17:04:09.969Z,68.98
2019-02-21T17:06:39.548Z,70.08
2019-02-21T17:09:11.398Z,70.77
2019-02-21T17:11:41.347Z,70.75
2019-02-21T17:14:23.939Z,70.75
2019-02-21T17:16:53.669Z,71.07
2019-02-21T17:19:24.131Z,71.71
2019-02-21T17:21:57.174Z,71.35
2019-02-21T17:24:26.898Z,71.19
2019-02-21T17:26:59.322Z,71.84
2019-02-21T17:29:28.948Z,71.41
2019-02-21T17:31:58.926Z,71.41
2019-02-21T17:34:29.791Z,70.76
2019-02-21T17:37:00.199Z,70.76
2019-02-21T17:39:32.848Z,71.12
2019-02-21T17:42:02.646Z,72.12
2019-02-21T17:44:32.140Z,72.07
2019-02-21T17:47:01.551Z,72.07
2019-02-21T17:49:31.862Z,72.14
2019-02-21T17:52:01.611Z,73.07
2019-02-21T17:54:33.140Z,71.55
2019-02-21T17:57:04.675Z,71.55
2019-02-21T17:59:37.311Z,72.53
2019-02-21T18:02:08.183Z,73.03
2019-02-21T18:04:37.805Z,73.21
2019-02-21T18:07:07.291Z,73.61
2019-02-21T18:09:38.425Z,73.61
2019-02-21T18:12:08.601Z,74.13
2019-02-21T18:14:38.191Z,74.09
2019-02-21T18:17:07.840Z,74.09
2019-02-21T18:19:44.207Z,75.41
2019-02-21T18:22:19.223Z,75.41
2019-02-21T18:24:49.226Z,75.03
2019-02-21T18:27:21.246Z,75.04
2019-02-21T18:29:50.933Z,75.30
2019-02-21T18:32:20.337Z,75.44
2019-02-21T18:34:51.603Z,75.44
2019-02-21T18:37:22.800Z,76.88
2019-02-21T18:39:56.236Z,76.06
2019-02-21T18:42:25.865Z,75.07
2019-02-21T18:44:55.280Z,75.36
2019-02-21T18:47:25.581Z,75.36
2019-02-21T18:49:55.755Z,76.30
2019-02-21T18:52:28.133Z,75.79
2019-02-21T18:54:57.889Z,75.67
2019-02-21T18:57:28.090Z,75.67
2019-02-21T18:59:57.782Z,76.01
2019-02-21T19:02:29.999Z,76.01
2019-02-21T19:04:59.470Z,76.04
2019-02-21T19:07:29.313Z,75.83
2019-02-21T19:09:58.974Z,76.80
2019-02-21T19:12:29.129Z,77.50
2019-02-21T19:15:04.851Z,77.54
2019-02-21T19:17:34.660Z,77.55
2019-02-21T19:20:27.359Z,78.23
2019-02-21T19:22:59.015Z,77.83
2019-02-21T19:25:29.118Z,78.15
2019-02-21T19:27:59.170Z,78.15
2019-02-21T19:30:35.137Z,80.57
2019-02-21T19:33:05.253Z,82.42
2019-02-21T19:35:35.092Z,82.62
2019-02-21T19:38:10.506Z,83.21
2019-02-21T19:40:38.246Z,83.21
2019-02-21T19:43:08.270Z,83.38
2019-02-21T19:45:37.819Z,83.66
2019-02-21T19:48:08.881Z,83.66
2019-02-21T19:50:40.315Z,83.22
2019-02-21T19:53:11.277Z,84.01
2019-02-21T19:55:42.247Z,84.01
2019-02-21T19:58:13.914Z,83.54
2019-02-21T20:00:43.632Z,83.70
2019-02-21T20:03:16.029Z,83.05
2019-02-21T20:05:45.740Z,83.83
2019-02-21T20:08:21.658Z,84.10
2019-02-21T20:11:02.509Z,83.78
2019-02-21T20:13:34.498Z,83.78
2019-02-21T20:16:07.369Z,85.38
2019-02-21T20:18:45.885Z,84.96
2019-02-21T20:21:21.830Z,84.18
2019-02-21T20:23:56.757Z,84.18
2019-02-21T20:26:26.547Z,85.11
2019-02-21T20:28:56.419Z,85.11
2019-02-21T20:31:26.905Z,85.52
2019-02-21T20:34:03.097Z,85.62
2019-02-21T20:36:33.182Z,84.93
2019-02-21T20:39:04.338Z,85.67
2019-02-21T20:41:38.109Z,85.67
2019-02-21T20:44:07.533Z,85.65
2019-02-21T20:46:38.958Z,85.65
2019-02-21T20:49:11.576Z,86.46
2019-02-21T20:51:46.513Z,86.69
2019-02-21T20:54:17.691Z,86.94
2019-02-21T20:56:53.417Z,86.94
2019-02-21T20:59:23.405Z,86.76
2019-02-21T21:01:55.818Z,86.76
2019-02-21T21:04:25.395Z,87.95
2019-02-21T21:06:54.910Z,87.95
2019-02-21T21:09:32.157Z,88.26
2019-02-21T21:12:02.365Z,88.04
2019-02-21T21:14:31.986Z,88.67
2019-02-21T21:17:01.375Z,88.20
2019-02-21T21:19:36.666Z,87.99
2019-02-21T21:22:07.459Z,88.29
2019-02-21T21:24:40.250Z,89.21
2019-02-21T21:27:12.129Z,88.54
2019-02-21T21:29:41.861Z,88.46
2019-02-21T21:32:12.263Z,88.46
2019-02-21T21:34:41.813Z,88.45
2019-02-21T21:37:11.391Z,88.45
2019-02-21T21:39:42.732Z,89.01
2019-02-21T21:42:12.497Z,88.73
2019-02-21T21:44:42.763Z,89.01
2019-02-21T21:47:12.280Z,89.01
2019-02-21T21:49:43.517Z,88.63
2019-02-21T21:52:13.010Z,89.43
2019-02-21T21:54:46.823Z,89.47
2019-02-21T21:57:17.886Z,89.68
2019-02-21T21:59:47.780Z,89.91
2019-02-21T22:02:17.654Z,89.58
2019-02-21T22:04:48.421Z,89.58
2019-02-21T22:07:19.164Z,90.16
2019-02-21T22:09:48.863Z,89.86
2019-02-21T22:12:20.174Z,90.35
2019-02-21T22:14:50.253Z,90.35
2019-02-21T22:17:20.140Z,90.08
2019-02-21T22:19:49.999Z,90.53
2019-02-21T22:22:19.739Z,90.57
2019-02-21T22:24:49.577Z,90.57
2019-02-21T22:27:25.543Z,90.22
2019-02-21T22:29:55.138Z,90.31
2019-02-21T22:32:28.061Z,90.31
2019-02-21T22:35:00.821Z,90.24
2019-02-21T22:37:31.292Z,90.66
2019-02-21T22:40:01.323Z,90.66
2019-02-21T22:42:32.434Z,90.99
2019-02-21T22:45:02.317Z,91.52
2019-02-21T22:47:31.969Z,91.10
2019-02-21T22:50:02.532Z,90.74
2019-02-21T22:52:34.092Z,90.89
2019-02-21T22:55:09.765Z,90.89
2019-02-21T22:57:39.670Z,90.77
2019-02-21T23:01:01.859Z,90.77
2019-02-21T23:03:59.385Z,91.32
2019-02-21T23:07:08.063Z,90.45
2019-02-21T23:09:37.780Z,90.86
2019-02-21T23:12:07.442Z,91.42
2019-02-21T23:14:37.126Z,91.42
2019-02-21T23:17:07.437Z,90.56
2019-02-21T23:19:37.180Z,90.55
2019-02-21T23:22:07.139Z,90.08
2019-02-21T23:24:39.100Z,90.33
2019-02-21T23:27:09.175Z,91.31
2019-02-21T23:29:38.633Z,91.31
2019-02-21T23:32:08.341Z,90.63
2019-02-21T23:34:42.755Z,90.63
2019-02-21T23:37:12.256Z,91.24
2019-02-21T23:39:42.271Z,92.40
2019-02-21T23:42:11.668Z,92.60
2019-02-21T23:44:41.279Z,92.60
2019-02-21T23:47:10.916Z,92.31
2019-02-21T23:49:40.660Z,92.31
2019-02-21T23:52:10.151Z,92.19
2019-02-21T23:54:41.659Z,92.19
2019-02-21T23:57:11.581Z,92.30
2019-02-21T23:59:40.960Z,91.84
